createdAt,value
2023-05-05T00:00:02.095Z,3.75
2023-05-05T00:00:17.437Z,3.83
2023-05-05T00:00:51.758Z,4.20
2023-05-05T00:01:04.305Z,4.05
2023-05-05T00:01:16.882Z,4.00
2023-05-05T00:01:29.698Z,4.10
2023-05-05T00:01:42.486Z,4.30
2023-05-05T00:01:55.409Z,4.15
2023-05-05T00:02:08.994Z,4.00
2023-05-05T00:02:21.830Z,4.10
2023-05-05T00:02:34.514Z,4.18
2023-05-05T00:02:47.870Z,4.15
2023-05-05T00:03:00.608Z,4.15
2023-05-05T00:03:13.304Z,4.10
2023-05-05T00:03:26.283Z,4.25
2023-05-05T00:03:39.107Z,4.35
2023-05-05T00:03:52.311Z,3.75
2023-05-05T00:04:06.101Z,3.53
2023-05-05T00:04:22.481Z,3.60
2023-05-05T00:04:35.097Z,3.90
2023-05-05T00:04:47.801Z,4.15
2023-05-05T00:05:00.361Z,4.03
2023-05-05T00:05:12.923Z,3.92
2023-05-05T00:05:25.583Z,3.72
2023-05-05T00:05:39.363Z,3.80
2023-05-05T00:05:53.094Z,3.75
2023-05-05T00:06:05.897Z,4.03
2023-05-05T00:06:18.443Z,4.18
2023-05-05T00:06:31.529Z,4.20
2023-05-05T00:06:44.076Z,4.10
2023-05-05T00:06:58.271Z,4.03
2023-05-05T00:07:10.812Z,4.05
2023-05-05T00:07:23.334Z,4.18
2023-05-05T00:07:35.854Z,4.35
2023-05-05T00:07:48.473Z,3.95
2023-05-05T00:08:01.040Z,3.67
2023-05-05T00:08:13.598Z,3.67
2023-05-05T00:08:27.123Z,3.90
2023-05-05T00:08:39.651Z,3.95
2023-05-05T00:08:52.156Z,3.70
2023-05-05T00:09:04.927Z,3.65
2023-05-05T00:09:17.515Z,3.85
2023-05-05T00:09:30.041Z,4.00
2023-05-05T00:09:42.923Z,3.80
2023-05-05T00:09:56.416Z,3.85
2023-05-05T00:10:09.990Z,3.92
2023-05-05T00:10:22.693Z,3.85
2023-05-05T00:10:35.287Z,4.05
2023-05-05T00:10:48.394Z,4.25
2023-05-05T00:11:01.072Z,4.22
2023-05-05T00:11:13.664Z,4.18
2023-05-05T00:11:27.318Z,4.00
2023-05-05T00:11:39.850Z,3.70
2023-05-05T00:11:52.625Z,3.85
2023-05-05T00:12:05.917Z,4.10
2023-05-05T00:12:18.435Z,4.20
2023-05-05T00:12:31.066Z,4.32
2023-05-05T00:12:43.721Z,3.83
2023-05-05T00:12:56.869Z,3.83
2023-05-05T00:13:10.578Z,4.00
2023-05-05T00:13:23.690Z,3.80
2023-05-05T00:13:36.329Z,3.78
2023-05-05T00:13:49.227Z,3.70
2023-05-05T00:14:01.778Z,3.85
2023-05-05T00:14:14.447Z,4.13
2023-05-05T00:14:27.010Z,4.10
2023-05-05T00:14:39.605Z,4.25
2023-05-05T00:14:53.169Z,4.20
2023-05-05T00:15:07.372Z,3.97
2023-05-05T00:15:21.415Z,3.72
2023-05-05T00:15:34.033Z,3.85
2023-05-05T00:15:49.177Z,3.97
2023-05-05T00:16:01.757Z,3.90
2023-05-05T00:16:14.627Z,3.70
2023-05-05T00:16:28.850Z,3.50
2023-05-05T00:16:41.495Z,3.65
2023-05-05T00:16:54.098Z,3.85
2023-05-05T00:17:06.818Z,3.88
2023-05-05T00:17:19.558Z,3.70
2023-05-05T00:17:32.148Z,3.70
2023-05-05T00:17:44.724Z,3.75
2023-05-05T00:17:57.317Z,3.90
2023-05-05T00:18:10.408Z,3.90
2023-05-05T00:18:22.972Z,3.75
2023-05-05T00:18:36.584Z,3.60
2023-05-05T00:18:49.197Z,3.67
2023-05-05T00:19:01.801Z,3.83
2023-05-05T00:19:14.342Z,3.90
2023-05-05T00:19:26.834Z,3.95
2023-05-05T00:19:39.410Z,4.00
2023-05-05T00:19:52.388Z,3.97
2023-05-05T00:20:07.026Z,3.85
2023-05-05T00:20:21.158Z,3.75
2023-05-05T00:20:33.737Z,3.95
2023-05-05T00:20:47.364Z,4.15
2023-05-05T00:21:00.133Z,3.92
2023-05-05T00:21:12.732Z,3.92
2023-05-05T00:21:25.280Z,3.97
2023-05-05T00:21:37.833Z,3.85
2023-05-05T00:21:51.393Z,3.80
2023-05-05T00:22:03.985Z,3.88
2023-05-05T00:22:16.713Z,4.03
2023-05-05T00:22:29.262Z,4.00
2023-05-05T00:22:41.857Z,3.80
2023-05-05T00:22:54.418Z,3.88
2023-05-05T00:23:06.928Z,3.95
2023-05-05T00:23:20.206Z,3.80
2023-05-05T00:23:33.714Z,3.90
2023-05-05T00:23:46.561Z,3.92
2023-05-05T00:23:59.110Z,3.85
2023-05-05T00:24:11.877Z,3.85
2023-05-05T00:24:24.506Z,3.90
2023-05-05T00:24:37.019Z,3.80
2023-05-05T00:24:49.526Z,3.72
2023-05-05T00:25:02.042Z,3.88
2023-05-05T00:25:14.711Z,4.10
2023-05-05T00:25:29.215Z,4.10
2023-05-05T00:25:41.916Z,3.85
2023-05-05T00:25:54.509Z,3.53
2023-05-05T00:26:07.112Z,3.70
2023-05-05T00:26:19.937Z,3.90
2023-05-05T00:26:32.530Z,4.10
2023-05-05T00:26:46.153Z,4.10
2023-05-05T00:26:58.900Z,3.80
2023-05-05T00:27:11.481Z,3.60
2023-05-05T00:27:24.307Z,3.55
2023-05-05T00:27:38.885Z,3.63
2023-05-05T00:27:52.755Z,3.65
2023-05-05T00:28:05.732Z,3.83
2023-05-05T00:28:18.225Z,4.20
2023-05-05T00:28:30.776Z,4.03
2023-05-05T00:28:44.431Z,4.15
2023-05-05T00:28:57.231Z,4.05
2023-05-05T00:29:09.789Z,4.10
2023-05-05T00:29:22.301Z,4.05
2023-05-05T00:29:34.812Z,3.92
2023-05-05T00:29:47.905Z,3.83
2023-05-05T00:30:00.441Z,3.65
2023-05-05T00:30:14.525Z,3.72
2023-05-05T00:30:28.440Z,4.00
2023-05-05T00:30:41.099Z,3.85
2023-05-05T00:30:53.785Z,3.80
2023-05-05T00:31:08.169Z,4.10
2023-05-05T00:31:21.608Z,4.03
2023-05-05T00:31:35.302Z,3.90
2023-05-05T00:31:47.978Z,4.00
2023-05-05T00:32:00.509Z,3.92
2023-05-05T00:32:13.228Z,3.92
2023-05-05T00:32:25.953Z,3.70
2023-05-05T00:32:38.609Z,3.83
2023-05-05T00:32:51.625Z,3.80
2023-05-05T00:33:05.850Z,3.97
2023-05-05T00:33:18.433Z,3.80
2023-05-05T00:33:31.230Z,3.78
2023-05-05T00:33:43.972Z,3.88
2023-05-05T00:33:56.513Z,3.78
2023-05-05T00:34:09.045Z,3.80
2023-05-05T00:34:22.562Z,3.90
2023-05-05T00:34:35.104Z,3.85
2023-05-05T00:34:47.909Z,3.90
2023-05-05T00:35:00.697Z,3.90
2023-05-05T00:35:13.317Z,3.78
2023-05-05T00:35:26.988Z,3.92
2023-05-05T00:35:39.565Z,4.13
2023-05-05T00:35:52.376Z,4.07
2023-05-05T00:36:06.151Z,4.13
2023-05-05T00:36:18.831Z,4.18
2023-05-05T00:36:31.397Z,4.28
2023-05-05T00:36:43.994Z,4.38
2023-05-05T00:36:56.552Z,4.10
2023-05-05T00:37:09.094Z,4.00
2023-05-05T00:37:21.637Z,4.03
2023-05-05T00:37:35.254Z,4.00
2023-05-05T00:37:47.783Z,3.90
2023-05-05T00:38:00.366Z,4.05
2023-05-05T00:38:13.000Z,4.18
2023-05-05T00:38:25.777Z,4.00
2023-05-05T00:38:38.544Z,3.92
2023-05-05T00:38:51.088Z,3.88
2023-05-05T00:39:04.790Z,4.07
2023-05-05T00:39:17.305Z,3.75
2023-05-05T00:39:30.604Z,3.83
2023-05-05T00:39:44.385Z,3.90
2023-05-05T00:39:57.430Z,3.80
2023-05-05T00:40:11.130Z,3.88
2023-05-05T00:40:25.416Z,3.80
2023-05-05T00:40:38.030Z,3.72
2023-05-05T00:40:50.613Z,4.10
2023-05-05T00:41:03.352Z,4.15
2023-05-05T00:41:15.994Z,4.13
2023-05-05T00:41:28.812Z,4.00
2023-05-05T00:41:41.634Z,3.85
2023-05-05T00:41:55.181Z,4.00
2023-05-05T00:42:08.004Z,4.10
2023-05-05T00:42:20.568Z,4.00
2023-05-05T00:42:39.760Z,4.18
2023-05-05T00:42:52.568Z,4.00
2023-05-05T00:43:05.372Z,3.80
2023-05-05T00:43:17.922Z,3.83
2023-05-05T00:43:31.464Z,3.95
2023-05-05T00:43:44.006Z,4.15
2023-05-05T00:43:56.821Z,4.13
2023-05-05T00:44:09.444Z,3.78
2023-05-05T00:44:36.009Z,3.75
2023-05-05T00:44:48.546Z,3.97
2023-05-05T00:45:01.125Z,4.10
2023-05-05T00:45:15.073Z,3.90
2023-05-05T00:45:30.263Z,3.83
2023-05-05T00:45:47.517Z,4.10
2023-05-05T00:46:02.264Z,3.88
2023-05-05T00:46:26.268Z,3.88
2023-05-05T00:46:40.568Z,4.00
2023-05-05T00:46:54.341Z,4.18
2023-05-05T00:47:08.370Z,4.07
2023-05-05T00:47:21.159Z,3.80
2023-05-05T00:47:33.748Z,3.80
2023-05-05T00:47:49.072Z,3.90
2023-05-05T00:48:01.943Z,3.97
2023-05-05T00:48:16.977Z,3.97
2023-05-05T00:48:30.709Z,3.88
2023-05-05T00:48:43.294Z,3.75
2023-05-05T00:48:57.735Z,3.70
2023-05-05T00:49:10.618Z,3.80
2023-05-05T00:49:23.191Z,3.90
2023-05-05T00:49:36.295Z,3.92
2023-05-05T00:49:50.140Z,4.00
2023-05-05T00:50:03.783Z,3.83
2023-05-05T00:50:22.921Z,3.70
2023-05-05T00:50:36.453Z,3.97
2023-05-05T00:50:49.065Z,3.97
2023-05-05T00:51:01.689Z,3.80
2023-05-05T00:51:16.704Z,3.67
2023-05-05T00:51:31.349Z,3.80
2023-05-05T00:51:43.940Z,3.70
2023-05-05T00:51:56.666Z,3.80
2023-05-05T00:52:09.870Z,4.03
2023-05-05T00:52:22.495Z,3.80
2023-05-05T00:52:36.217Z,3.60
2023-05-05T00:52:49.294Z,3.60
2023-05-05T00:53:03.725Z,3.78
2023-05-05T00:53:17.274Z,4.00
2023-05-05T00:53:30.162Z,3.92
2023-05-05T00:53:45.080Z,3.88
2023-05-05T00:53:57.743Z,3.83
2023-05-05T00:54:10.408Z,3.70
2023-05-05T00:54:23.036Z,3.95
2023-05-05T00:54:36.315Z,4.07
2023-05-05T00:54:49.132Z,4.03
2023-05-05T00:55:02.057Z,3.85
2023-05-05T00:55:15.731Z,4.10
2023-05-05T00:55:28.929Z,4.32
2023-05-05T00:55:41.787Z,4.07
2023-05-05T00:55:54.555Z,3.90
2023-05-05T00:56:07.435Z,4.03
2023-05-05T00:56:22.037Z,3.92
2023-05-05T00:56:35.608Z,3.58
2023-05-05T00:56:50.057Z,3.50
2023-05-05T00:57:03.070Z,3.40
2023-05-05T00:57:16.002Z,3.47
2023-05-05T00:57:28.978Z,3.40
2023-05-05T00:57:41.972Z,3.70
2023-05-05T00:57:54.787Z,4.00
2023-05-05T00:58:08.882Z,3.92
2023-05-05T00:58:21.536Z,3.80
2023-05-05T00:58:34.924Z,3.80
2023-05-05T00:58:48.061Z,4.00
2023-05-05T00:59:02.459Z,4.05
2023-05-05T00:59:15.028Z,3.95
2023-05-05T00:59:28.324Z,3.83
2023-05-05T00:59:42.177Z,3.78
2023-05-05T00:59:55.987Z,3.95
2023-05-05T01:00:10.088Z,3.75
2023-05-05T01:00:23.095Z,3.75
2023-05-05T01:00:37.081Z,3.80
2023-05-05T01:00:50.584Z,3.72
2023-05-05T01:01:04.352Z,3.92
2023-05-05T01:01:17.753Z,4.00
2023-05-05T01:01:30.345Z,4.00
2023-05-05T01:01:43.273Z,4.00
2023-05-05T01:01:55.965Z,3.90
2023-05-05T01:02:09.474Z,4.00
2023-05-05T01:02:22.779Z,3.80
2023-05-05T01:02:36.729Z,3.90
2023-05-05T01:02:49.442Z,3.95
2023-05-05T01:03:02.186Z,3.83
2023-05-05T01:03:15.520Z,3.90
2023-05-05T01:03:28.285Z,3.90
2023-05-05T01:03:41.746Z,3.78
2023-05-05T01:03:55.647Z,3.83
2023-05-05T01:04:08.193Z,3.70
2023-05-05T01:04:20.764Z,3.60
2023-05-05T01:04:33.771Z,3.60
2023-05-05T01:04:46.293Z,3.70
2023-05-05T01:04:58.843Z,3.70
2023-05-05T01:05:13.380Z,3.83
2023-05-05T01:05:34.068Z,3.85
2023-05-05T01:05:55.332Z,3.63
2023-05-05T01:06:18.735Z,3.72
2023-05-05T01:06:42.217Z,3.83
2023-05-05T01:07:08.951Z,3.60
2023-05-05T01:07:32.987Z,3.78
2023-05-05T01:07:56.990Z,3.72
2023-05-05T01:08:27.985Z,3.70
2023-05-05T01:08:51.283Z,3.53
2023-05-05T01:09:12.896Z,3.60
2023-05-05T01:09:36.407Z,3.90
2023-05-05T01:10:11.014Z,4.05
2023-05-05T01:10:38.597Z,3.67
2023-05-05T01:10:55.115Z,3.60
2023-05-05T01:11:14.389Z,3.70
2023-05-05T01:11:36.765Z,3.72
2023-05-05T01:11:56.714Z,3.58
2023-05-05T01:12:19.642Z,3.70
2023-05-05T01:12:41.543Z,3.78
2023-05-05T01:13:04.589Z,3.95
2023-05-05T01:13:29.961Z,3.65
2023-05-05T01:13:50.392Z,3.67
2023-05-05T01:14:12.544Z,3.70
2023-05-05T01:14:34.278Z,3.72
2023-05-05T01:14:53.018Z,3.88
2023-05-05T01:15:14.262Z,3.53
2023-05-05T01:15:33.056Z,3.58
2023-05-05T01:15:53.460Z,3.60
2023-05-05T01:16:12.965Z,3.60
2023-05-05T01:16:29.042Z,3.60
2023-05-05T01:16:56.005Z,3.65
2023-05-05T01:17:17.298Z,3.53
2023-05-05T01:17:39.618Z,3.58
2023-05-05T01:17:57.475Z,3.58
2023-05-05T01:18:14.407Z,3.80
2023-05-05T01:18:32.547Z,3.83
2023-05-05T01:18:52.178Z,3.58
2023-05-05T01:19:14.849Z,3.75
2023-05-05T01:19:53.597Z,3.55
2023-05-05T01:20:17.145Z,3.65
2023-05-05T01:20:37.224Z,3.75
2023-05-05T01:20:58.704Z,3.55
2023-05-05T01:21:15.515Z,3.80
2023-05-05T01:21:33.860Z,3.45
2023-05-05T01:21:51.802Z,3.72
2023-05-05T01:22:09.029Z,3.80
2023-05-05T01:22:27.209Z,3.50
2023-05-05T01:22:43.976Z,3.50
2023-05-05T01:23:00.972Z,3.50
2023-05-05T01:23:23.039Z,3.55
2023-05-05T01:24:07.890Z,3.88
2023-05-05T01:24:52.659Z,3.55
2023-05-05T01:25:27.039Z,4.15
2023-05-05T01:26:02.612Z,4.05
2023-05-05T01:26:35.936Z,3.97
2023-05-05T01:26:59.194Z,4.30
2023-05-05T01:27:34.271Z,4.10
2023-05-05T01:28:02.951Z,4.60
2023-05-05T01:28:28.053Z,4.35
2023-05-05T01:29:03.207Z,4.35
2023-05-05T01:29:35.503Z,5.22
2023-05-05T01:30:03.112Z,4.93
2023-05-05T01:30:28.673Z,4.47
2023-05-05T01:31:03.620Z,4.30
2023-05-05T01:31:53.164Z,4.80
2023-05-05T01:32:09.806Z,4.25
2023-05-05T01:32:26.839Z,4.50
2023-05-05T01:32:47.360Z,4.60
2023-05-05T01:33:06.621Z,4.60
2023-05-05T01:33:25.604Z,4.50
2023-05-05T01:33:46.057Z,4.47
2023-05-05T01:34:03.890Z,3.97
2023-05-05T01:34:19.565Z,4.32
2023-05-05T01:34:35.654Z,4.53
2023-05-05T01:34:55.047Z,4.28
2023-05-05T01:35:13.981Z,4.47
2023-05-05T01:35:31.893Z,4.40
2023-05-05T01:35:50.163Z,4.00
2023-05-05T01:36:07.660Z,4.30
2023-05-05T01:36:27.860Z,4.50
2023-05-05T01:36:44.626Z,4.10
2023-05-05T01:37:10.223Z,3.70
2023-05-05T01:37:24.917Z,3.80
2023-05-05T01:37:46.090Z,4.00
2023-05-05T01:38:04.987Z,3.97
2023-05-05T01:38:21.728Z,3.85
2023-05-05T01:38:40.575Z,3.83
2023-05-05T01:38:58.138Z,3.88
2023-05-05T01:39:15.126Z,4.05
2023-05-05T01:39:33.480Z,4.20
2023-05-05T01:39:50.220Z,4.10
2023-05-05T01:40:09.574Z,4.10
2023-05-05T01:40:26.880Z,3.63
2023-05-05T01:40:43.831Z,3.67
2023-05-05T01:41:03.785Z,3.85
2023-05-05T01:41:22.145Z,3.72
2023-05-05T01:41:42.782Z,3.67
2023-05-05T01:42:00.238Z,3.63
2023-05-05T01:42:15.015Z,3.75
2023-05-05T01:42:30.103Z,3.92
2023-05-05T01:42:43.867Z,3.80
2023-05-05T01:42:58.432Z,3.80
2023-05-05T01:43:13.648Z,3.95
2023-05-05T01:43:30.757Z,4.13
2023-05-05T01:43:47.123Z,3.78
2023-05-05T01:44:03.017Z,4.00
2023-05-05T01:44:16.802Z,4.30
2023-05-05T01:44:31.021Z,4.15
2023-05-05T01:44:44.943Z,4.15
2023-05-05T01:44:59.886Z,4.13
2023-05-05T01:45:14.670Z,4.07
2023-05-05T01:45:32.527Z,3.90
2023-05-05T01:45:46.938Z,3.85
2023-05-05T01:46:00.857Z,4.28
2023-05-05T01:46:15.321Z,4.45
2023-05-05T01:46:29.402Z,4.10
2023-05-05T01:46:42.066Z,4.10
2023-05-05T01:46:55.908Z,4.18
2023-05-05T01:47:12.508Z,4.13
2023-05-05T01:47:25.616Z,4.28
2023-05-05T01:47:40.338Z,4.38
2023-05-05T01:47:55.866Z,4.20
2023-05-05T01:48:11.672Z,4.30
2023-05-05T01:48:25.989Z,4.25
2023-05-05T01:48:41.770Z,4.22
2023-05-05T01:48:56.879Z,4.07
2023-05-05T01:49:11.791Z,3.90
2023-05-05T01:49:26.076Z,4.20
2023-05-05T01:49:39.722Z,4.40
2023-05-05T01:49:52.773Z,4.40
2023-05-05T01:50:08.595Z,4.30
2023-05-05T01:50:22.395Z,4.43
2023-05-05T01:50:37.036Z,4.40
2023-05-05T01:50:52.298Z,4.20
2023-05-05T01:51:07.485Z,4.10
2023-05-05T01:51:24.501Z,4.30
2023-05-05T01:51:38.373Z,4.38
2023-05-05T01:51:52.341Z,4.30
2023-05-05T01:52:06.934Z,4.30
2023-05-05T01:52:20.740Z,4.28
2023-05-05T01:52:36.906Z,4.30
2023-05-05T01:52:51.540Z,4.20
2023-05-05T01:53:06.287Z,4.20
2023-05-05T01:53:21.239Z,4.07
2023-05-05T01:53:35.576Z,4.20
2023-05-05T01:53:49.681Z,4.38
2023-05-05T01:54:08.795Z,4.32
2023-05-05T01:54:24.213Z,4.10
2023-05-05T01:54:39.258Z,4.43
2023-05-05T01:54:53.282Z,4.38
2023-05-05T01:55:08.567Z,4.00
2023-05-05T01:55:24.641Z,4.15
2023-05-05T01:55:40.219Z,4.32
2023-05-05T01:55:54.555Z,4.30
2023-05-05T01:56:09.606Z,4.22
2023-05-05T01:56:24.007Z,4.00
2023-05-05T01:56:39.921Z,4.20
2023-05-05T01:56:54.862Z,4.30
2023-05-05T01:57:10.037Z,4.22
2023-05-05T01:57:26.521Z,4.10
2023-05-05T01:57:41.884Z,4.00
2023-05-05T01:57:56.162Z,4.00
2023-05-05T01:58:11.107Z,3.92
2023-05-05T01:58:27.019Z,3.95
2023-05-05T01:58:43.014Z,3.80
2023-05-05T01:58:56.554Z,3.78
2023-05-05T01:59:11.184Z,4.05
2023-05-05T01:59:26.388Z,3.80
2023-05-05T01:59:40.076Z,3.78
2023-05-05T01:59:53.818Z,4.30
2023-05-05T02:00:10.646Z,4.40
2023-05-05T02:00:26.974Z,4.28
2023-05-05T02:00:41.508Z,4.38
2023-05-05T02:00:57.049Z,4.25
2023-05-05T02:01:11.263Z,4.25
2023-05-05T02:01:26.997Z,4.35
2023-05-05T02:01:44.659Z,4.30
2023-05-05T02:01:59.686Z,4.30
2023-05-05T02:02:15.723Z,4.10
2023-05-05T02:02:29.292Z,4.15
2023-05-05T02:02:44.689Z,4.15
2023-05-05T02:02:59.845Z,3.88
2023-05-05T02:03:14.967Z,3.95
2023-05-05T02:03:31.458Z,4.10
2023-05-05T02:03:47.068Z,4.05
2023-05-05T02:04:02.003Z,3.88
2023-05-05T02:04:17.931Z,3.67
2023-05-05T02:04:33.178Z,3.88
2023-05-05T02:04:46.539Z,4.07
2023-05-05T02:05:01.230Z,4.05
2023-05-05T02:05:16.276Z,4.05
2023-05-05T02:05:30.417Z,4.10
2023-05-05T02:05:44.657Z,4.10
2023-05-05T02:06:00.532Z,4.13
2023-05-05T02:06:14.976Z,4.13
2023-05-05T02:06:32.436Z,4.13
2023-05-05T02:06:50.384Z,4.18
2023-05-05T02:07:05.043Z,3.90
2023-05-05T02:07:18.358Z,3.97
2023-05-05T02:07:33.251Z,3.97
2023-05-05T02:07:46.209Z,4.03
2023-05-05T02:08:00.371Z,4.10
2023-05-05T02:08:14.362Z,3.90
2023-05-05T02:08:28.820Z,4.05
2023-05-05T02:08:43.352Z,4.15
2023-05-05T02:08:58.402Z,4.18
2023-05-05T02:09:13.058Z,4.10
2023-05-05T02:09:29.266Z,4.07
2023-05-05T02:09:44.178Z,4.00
2023-05-05T02:09:57.391Z,3.95
2023-05-05T02:10:13.528Z,3.83
2023-05-05T02:10:27.604Z,3.80
2023-05-05T02:10:41.060Z,3.85
2023-05-05T02:10:55.757Z,3.90
2023-05-05T02:11:10.659Z,4.00
2023-05-05T02:11:25.109Z,4.10
2023-05-05T02:11:39.119Z,4.20
2023-05-05T02:11:52.488Z,3.83
2023-05-05T02:12:07.401Z,3.90
2023-05-05T02:12:21.108Z,3.88
2023-05-05T02:12:36.002Z,3.95
2023-05-05T02:12:50.319Z,4.07
2023-05-05T02:13:05.222Z,4.10
2023-05-05T02:13:18.938Z,3.90
2023-05-05T02:13:32.984Z,3.92
2023-05-05T02:13:47.467Z,4.20
2023-05-05T02:14:01.322Z,4.18
2023-05-05T02:14:16.163Z,4.00
2023-05-05T02:14:31.561Z,4.13
2023-05-05T02:14:46.397Z,4.10
2023-05-05T02:15:01.457Z,4.10
2023-05-05T02:15:15.541Z,4.28
2023-05-05T02:15:28.840Z,4.22
2023-05-05T02:15:44.013Z,4.15
2023-05-05T02:15:57.747Z,4.15
2023-05-05T02:16:12.655Z,4.28
2023-05-05T02:16:25.494Z,4.13
2023-05-05T02:16:41.209Z,3.90
2023-05-05T02:16:55.640Z,4.05
2023-05-05T02:17:09.739Z,4.20
2023-05-05T02:17:25.943Z,4.18
2023-05-05T02:17:42.409Z,4.10
2023-05-05T02:17:57.961Z,4.22
2023-05-05T02:18:11.739Z,4.28
2023-05-05T02:18:25.972Z,4.00
2023-05-05T02:18:38.937Z,4.03
2023-05-05T02:18:53.675Z,4.00
2023-05-05T02:19:07.235Z,4.07
2023-05-05T02:19:25.392Z,4.38
2023-05-05T02:19:40.218Z,4.15
2023-05-05T02:19:54.551Z,3.92
2023-05-05T02:20:10.992Z,3.92
2023-05-05T02:20:24.578Z,3.80
2023-05-05T02:20:40.422Z,4.00
2023-05-05T02:20:53.495Z,4.18
2023-05-05T02:21:07.581Z,4.38
2023-05-05T02:21:20.923Z,4.38
2023-05-05T02:21:34.483Z,4.20
2023-05-05T02:21:47.106Z,4.00
2023-05-05T02:22:00.221Z,3.95
2023-05-05T02:22:12.732Z,4.00
2023-05-05T02:22:25.484Z,4.30
2023-05-05T02:22:39.106Z,4.55
2023-05-05T02:22:51.682Z,4.63
2023-05-05T02:23:05.730Z,4.55
2023-05-05T02:23:18.335Z,4.40
2023-05-05T02:23:30.961Z,4.40
2023-05-05T02:23:43.949Z,4.15
2023-05-05T02:23:56.689Z,4.07
2023-05-05T02:24:10.533Z,4.05
2023-05-05T02:24:23.476Z,3.95
2023-05-05T02:24:36.160Z,4.18
2023-05-05T02:24:48.878Z,4.40
2023-05-05T02:25:01.468Z,4.40
2023-05-05T02:25:14.642Z,4.22
2023-05-05T02:25:32.510Z,4.38
2023-05-05T02:25:50.898Z,4.38
2023-05-05T02:26:07.925Z,4.10
2023-05-05T02:26:22.671Z,4.40
2023-05-05T02:26:39.255Z,4.63
2023-05-05T02:26:54.614Z,4.57
2023-05-05T02:27:09.520Z,4.57
2023-05-05T02:27:24.407Z,4.68
2023-05-05T02:27:39.372Z,4.68
2023-05-05T02:27:57.692Z,4.50
2023-05-05T02:28:15.619Z,4.30
2023-05-05T02:28:35.498Z,4.15
2023-05-05T02:28:53.696Z,4.57
2023-05-05T02:29:09.656Z,4.40
2023-05-05T02:29:28.834Z,4.30
2023-05-05T02:29:47.890Z,4.22
2023-05-05T02:30:04.736Z,4.38
2023-05-05T02:30:19.855Z,4.50
2023-05-05T02:30:35.952Z,4.70
2023-05-05T02:30:57.569Z,4.65
2023-05-05T02:31:13.932Z,4.50
2023-05-05T02:31:29.028Z,4.38
2023-05-05T02:31:46.668Z,4.57
2023-05-05T02:32:04.360Z,4.85
2023-05-05T02:32:21.749Z,4.97
2023-05-05T02:32:40.346Z,4.70
2023-05-05T02:32:59.098Z,4.68
2023-05-05T02:33:16.613Z,4.65
2023-05-05T02:33:33.048Z,4.80
2023-05-05T02:33:48.501Z,4.88
2023-05-05T02:34:03.728Z,4.95
2023-05-05T02:34:22.711Z,5.05
2023-05-05T02:34:38.572Z,5.07
2023-05-05T02:34:53.220Z,4.80
2023-05-05T02:35:12.498Z,4.75
2023-05-05T02:35:34.070Z,4.80
2023-05-05T02:35:50.762Z,4.85
2023-05-05T02:36:09.943Z,4.82
2023-05-05T02:36:26.032Z,5.30
2023-05-05T02:36:40.960Z,5.43
2023-05-05T02:36:58.500Z,5.47
2023-05-05T02:37:16.753Z,5.22
2023-05-05T02:37:31.724Z,5.07
2023-05-05T02:37:48.480Z,4.97
2023-05-05T02:38:05.528Z,4.90
2023-05-05T02:38:18.884Z,4.72
2023-05-05T02:38:33.587Z,4.75
2023-05-05T02:38:48.697Z,5.07
2023-05-05T02:39:04.825Z,4.93
2023-05-05T02:39:25.102Z,4.93
2023-05-05T02:39:43.723Z,5.00
2023-05-05T02:40:01.704Z,4.90
2023-05-05T02:40:17.866Z,5.00
2023-05-05T02:40:33.013Z,4.88
2023-05-05T02:40:50.611Z,4.90
2023-05-05T02:41:04.467Z,4.88
2023-05-05T02:41:20.080Z,4.90
2023-05-05T02:41:36.170Z,5.05
2023-05-05T02:41:50.463Z,5.10
2023-05-05T02:42:04.804Z,5.05
2023-05-05T02:42:21.865Z,5.10
2023-05-05T02:42:38.311Z,5.18
2023-05-05T02:42:54.446Z,4.90
2023-05-05T02:43:11.371Z,4.93
2023-05-05T02:43:25.915Z,4.95
2023-05-05T02:43:41.175Z,4.90
2023-05-05T02:43:58.204Z,4.75
2023-05-05T02:44:13.964Z,4.88
2023-05-05T02:44:29.203Z,5.07
2023-05-05T02:44:42.741Z,5.13
2023-05-05T02:44:57.753Z,5.25
2023-05-05T02:45:13.133Z,5.43
2023-05-05T02:45:27.614Z,5.28
2023-05-05T02:45:41.215Z,5.03
2023-05-05T02:45:53.759Z,5.30
2023-05-05T02:46:08.085Z,5.47
2023-05-05T02:46:20.913Z,5.15
2023-05-05T02:46:33.790Z,5.13
2023-05-05T02:46:46.752Z,5.30
2023-05-05T02:46:59.557Z,5.38
2023-05-05T02:47:13.155Z,5.28
2023-05-05T02:47:34.276Z,5.05
2023-05-05T02:47:48.596Z,5.20
2023-05-05T02:48:03.114Z,5.30
2023-05-05T02:48:16.049Z,5.13
2023-05-05T02:48:29.749Z,4.93
2023-05-05T02:48:43.322Z,5.13
2023-05-05T02:48:56.175Z,4.93
2023-05-05T02:49:08.839Z,4.82
2023-05-05T02:49:21.668Z,4.90
2023-05-05T02:49:34.266Z,4.80
2023-05-05T02:49:47.290Z,4.95
2023-05-05T02:50:00.815Z,5.20
2023-05-05T02:50:13.391Z,5.20
2023-05-05T02:50:25.920Z,5.00
2023-05-05T02:50:38.899Z,5.18
2023-05-05T02:50:51.828Z,5.18
2023-05-05T02:51:04.791Z,4.93
2023-05-05T02:51:18.318Z,4.82
2023-05-05T02:51:30.868Z,4.95
2023-05-05T02:51:43.651Z,5.07
2023-05-05T02:51:57.958Z,5.13
2023-05-05T02:52:10.654Z,5.00
2023-05-05T02:52:23.155Z,5.43
2023-05-05T02:52:36.548Z,5.60
2023-05-05T02:52:50.224Z,5.30
2023-05-05T02:53:02.938Z,5.38
2023-05-05T02:53:15.778Z,5.18
2023-05-05T02:53:29.293Z,5.00
2023-05-05T02:53:42.063Z,4.80
2023-05-05T02:53:54.869Z,5.38
2023-05-05T02:54:08.698Z,5.40
2023-05-05T02:54:21.624Z,5.07
2023-05-05T02:54:34.349Z,4.75
2023-05-05T02:54:46.978Z,4.70
2023-05-05T02:55:00.374Z,4.50
2023-05-05T02:55:13.712Z,4.50
2023-05-05T02:55:29.389Z,4.68
2023-05-05T02:55:52.781Z,4.78
2023-05-05T02:56:16.380Z,5.07
2023-05-05T02:56:38.145Z,4.97
2023-05-05T02:56:51.834Z,4.85
2023-05-05T02:57:05.536Z,5.03
2023-05-05T02:57:20.956Z,5.40
2023-05-05T02:57:38.945Z,5.53
2023-05-05T02:57:58.182Z,5.22
2023-05-05T02:58:21.916Z,5.07
2023-05-05T02:58:42.592Z,5.15
2023-05-05T02:59:00.529Z,5.20
2023-05-05T02:59:19.568Z,5.50
2023-05-05T02:59:39.296Z,5.50
2023-05-05T03:00:00.439Z,5.20
2023-05-05T03:00:19.410Z,5.10
2023-05-05T03:00:38.579Z,4.95
2023-05-05T03:01:07.353Z,4.80
2023-05-05T03:01:29.449Z,5.18
2023-05-05T03:01:56.812Z,5.22
2023-05-05T03:02:17.894Z,4.97
2023-05-05T03:02:43.395Z,4.80
2023-05-05T03:03:14.165Z,4.88
2023-05-05T03:03:40.928Z,4.88
2023-05-05T03:04:04.641Z,4.72
2023-05-05T03:04:23.059Z,4.80
2023-05-05T03:04:39.541Z,5.03
2023-05-05T03:04:56.834Z,5.10
2023-05-05T03:05:14.011Z,4.97
2023-05-05T03:05:35.455Z,5.10
2023-05-05T03:06:07.546Z,5.00
2023-05-05T03:06:21.965Z,5.00
2023-05-05T03:06:41.105Z,5.15
2023-05-05T03:06:58.638Z,4.93
2023-05-05T03:07:15.895Z,4.93
2023-05-05T03:07:34.554Z,5.10
2023-05-05T03:07:54.700Z,5.20
2023-05-05T03:08:14.512Z,4.82
2023-05-05T03:08:30.052Z,4.65
2023-05-05T03:08:45.066Z,4.93
2023-05-05T03:09:06.417Z,5.20
2023-05-05T03:09:25.964Z,4.75
2023-05-05T03:09:44.691Z,4.93
2023-05-05T03:10:06.489Z,4.95
2023-05-05T03:10:26.191Z,5.00
2023-05-05T03:10:46.400Z,4.97
2023-05-05T03:11:04.794Z,5.25
2023-05-05T03:11:26.257Z,5.03
2023-05-05T03:11:45.003Z,5.10
2023-05-05T03:12:03.792Z,5.38
2023-05-05T03:12:20.342Z,5.03
2023-05-05T03:12:38.606Z,5.03
2023-05-05T03:12:55.035Z,4.88
2023-05-05T03:13:11.688Z,4.93
2023-05-05T03:13:27.403Z,5.05
2023-05-05T03:13:42.882Z,4.95
2023-05-05T03:14:05.859Z,5.10
2023-05-05T03:14:21.156Z,5.22
2023-05-05T03:14:37.077Z,4.93
2023-05-05T03:14:52.857Z,4.60
2023-05-05T03:15:09.275Z,4.78
2023-05-05T03:15:25.831Z,5.18
2023-05-05T03:15:43.442Z,5.05
2023-05-05T03:15:57.962Z,5.10
2023-05-05T03:16:11.807Z,5.30
2023-05-05T03:16:26.170Z,5.25
2023-05-05T03:16:42.981Z,5.07
2023-05-05T03:16:56.777Z,5.10
2023-05-05T03:17:11.004Z,5.10
2023-05-05T03:17:25.617Z,5.10
2023-05-05T03:17:40.929Z,5.10
2023-05-05T03:17:54.206Z,5.15
2023-05-05T03:18:11.648Z,5.28
2023-05-05T03:18:26.526Z,5.22
2023-05-05T03:18:40.481Z,5.25
2023-05-05T03:18:54.130Z,5.20
2023-05-05T03:19:08.861Z,4.95
2023-05-05T03:19:24.095Z,5.05
2023-05-05T03:19:38.968Z,5.05
2023-05-05T03:19:52.341Z,5.22
2023-05-05T03:20:06.578Z,5.35
2023-05-05T03:20:21.838Z,5.40
2023-05-05T03:20:35.070Z,5.18
2023-05-05T03:20:49.404Z,4.70
2023-05-05T03:21:08.548Z,4.75
2023-05-05T03:21:21.614Z,5.20
2023-05-05T03:21:34.536Z,5.22
2023-05-05T03:21:48.263Z,5.20
2023-05-05T03:22:03.132Z,4.97
2023-05-05T03:22:15.745Z,4.90
2023-05-05T03:22:29.317Z,4.95
2023-05-05T03:22:41.904Z,4.70
2023-05-05T03:22:55.336Z,4.65
2023-05-05T03:23:08.403Z,4.93
2023-05-05T03:23:22.806Z,4.95
2023-05-05T03:23:35.696Z,5.03
2023-05-05T03:23:48.366Z,5.00
2023-05-05T03:24:12.048Z,4.90
2023-05-05T03:24:24.597Z,5.28
2023-05-05T03:24:37.142Z,5.40
2023-05-05T03:24:52.543Z,5.20
2023-05-05T03:25:06.314Z,4.90
2023-05-05T03:25:18.886Z,4.85
2023-05-05T03:25:44.975Z,4.75
2023-05-05T03:25:58.516Z,4.90
2023-05-05T03:26:11.083Z,4.93
2023-05-05T03:26:24.612Z,5.15
2023-05-05T03:26:37.213Z,5.32
2023-05-05T03:26:50.043Z,5.38
2023-05-05T03:27:03.170Z,5.20
2023-05-05T03:27:16.761Z,5.13
2023-05-05T03:27:29.538Z,5.03